sensor_id;sensor_type;location;lat;lon;timestamp;P1;durP1;ratioP1;P2;durP2;ratioP2
33421;SDS011;19763;55.798;37.782;2023-08-06T00:00:10;15.80;;;9.27;;
33421;SDS011;19763;55.798;37.782;2023-08-06T00:02:36;13.55;;;9.52;;
33421;SDS011;19763;55.798;37.782;2023-08-06T00:05:02;12.82;;;9.55;;
33421;SDS011;19763;55.798;37.782;2023-08-06T00:07:30;11.65;;;9.02;;
33421;SDS011;19763;55.798;37.782;2023-08-06T00:09:57;19.15;;;9.57;;
33421;SDS011;19763;55.798;37.782;2023-08-06T00:12:22;16.75;;;10.00;;
33421;SDS011;19763;55.798;37.782;2023-08-06T00:14:52;15.60;;;10.55;;
33421;SDS011;19763;55.798;37.782;2023-08-06T00:17:18;13.82;;;9.68;;
33421;SDS011;19763;55.798;37.782;2023-08-06T00:19:44;16.42;;;10.00;;
33421;SDS011;19763;55.798;37.782;2023-08-06T00:22:10;13.68;;;9.43;;
33421;SDS011;19763;55.798;37.782;2023-08-06T00:24:36;11.50;;;9.20;;
33421;SDS011;19763;55.798;37.782;2023-08-06T00:27:02;17.60;;;10.95;;
33421;SDS011;19763;55.798;37.782;2023-08-06T00:29:28;17.55;;;9.90;;
33421;SDS011;19763;55.798;37.782;2023-08-06T00:31:54;15.13;;;10.55;;
33421;SDS011;19763;55.798;37.782;2023-08-06T00:34:20;18.02;;;10.35;;
33421;SDS011;19763;55.798;37.782;2023-08-06T00:36:45;16.90;;;9.55;;
33421;SDS011;19763;55.798;37.782;2023-08-06T00:39:11;14.75;;;9.30;;
33421;SDS011;19763;55.798;37.782;2023-08-06T00:41:37;13.55;;;9.82;;
33421;SDS011;19763;55.798;37.782;2023-08-06T00:44:02;15.38;;;9.80;;
33421;SDS011;19763;55.798;37.782;2023-08-06T00:46:28;17.63;;;11.35;;
33421;SDS011;19763;55.798;37.782;2023-08-06T00:48:55;14.77;;;9.98;;
33421;SDS011;19763;55.798;37.782;2023-08-06T00:51:21;13.10;;;9.25;;
33421;SDS011;19763;55.798;37.782;2023-08-06T00:53:48;16.08;;;11.07;;
33421;SDS011;19763;55.798;37.782;2023-08-06T00:56:15;15.48;;;11.30;;
33421;SDS011;19763;55.798;37.782;2023-08-06T00:58:41;17.52;;;11.35;;
33421;SDS011;19763;55.798;37.782;2023-08-06T01:01:07;17.13;;;11.40;;
33421;SDS011;19763;55.798;37.782;2023-08-06T01:03:32;15.25;;;10.85;;
33421;SDS011;19763;55.798;37.782;2023-08-06T01:05:58;17.35;;;11.45;;
33421;SDS011;19763;55.798;37.782;2023-08-06T01:13:59;17.45;;;11.52;;
33421;SDS011;19763;55.798;37.782;2023-08-06T01:16:48;14.23;;;11.48;;
33421;SDS011;19763;55.798;37.782;2023-08-06T01:19:18;20.70;;;12.65;;
33421;SDS011;19763;55.798;37.782;2023-08-06T01:21:44;21.35;;;12.63;;
33421;SDS011;19763;55.798;37.782;2023-08-06T01:24:10;17.00;;;11.70;;
33421;SDS011;19763;55.798;37.782;2023-08-06T01:26:43;18.70;;;12.52;;
33421;SDS011;19763;55.798;37.782;2023-08-06T01:29:31;16.65;;;11.63;;
33421;SDS011;19763;55.798;37.782;2023-08-06T01:32:02;16.35;;;12.10;;
33421;SDS011;19763;55.798;37.782;2023-08-06T01:34:31;17.38;;;11.50;;
33421;SDS011;19763;55.798;37.782;2023-08-06T01:36:58;16.90;;;11.75;;
33421;SDS011;19763;55.798;37.782;2023-08-06T01:39:25;14.55;;;11.10;;
33421;SDS011;19763;55.798;37.782;2023-08-06T01:41:51;18.88;;;11.05;;
33421;SDS011;19763;55.798;37.782;2023-08-06T01:44:17;17.77;;;11.48;;
33421;SDS011;19763;55.798;37.782;2023-08-06T01:46:43;15.63;;;11.15;;
33421;SDS011;19763;55.798;37.782;2023-08-06T01:49:08;17.50;;;11.65;;
33421;SDS011;19763;55.798;37.782;2023-08-06T01:51:34;15.88;;;11.02;;
33421;SDS011;19763;55.798;37.782;2023-08-06T01:53:59;16.67;;;11.88;;
33421;SDS011;19763;55.798;37.782;2023-08-06T01:56:25;13.43;;;10.88;;
33421;SDS011;19763;55.798;37.782;2023-08-06T01:58:51;13.75;;;10.80;;
33421;SDS011;19763;55.798;37.782;2023-08-06T02:01:16;17.65;;;11.10;;
33421;SDS011;19763;55.798;37.782;2023-08-06T02:03:42;13.90;;;11.60;;
33421;SDS011;19763;55.798;37.782;2023-08-06T02:06:08;19.10;;;11.75;;
33421;SDS011;19763;55.798;37.782;2023-08-06T02:08:33;14.13;;;11.35;;
33421;SDS011;19763;55.798;37.782;2023-08-06T02:10:59;13.13;;;10.88;;
33421;SDS011;19763;55.798;37.782;2023-08-06T02:13:25;18.58;;;11.07;;
33421;SDS011;19763;55.798;37.782;2023-08-06T02:15:51;16.92;;;11.27;;
33421;SDS011;19763;55.798;37.782;2023-08-06T02:18:17;13.68;;;10.75;;
33421;SDS011;19763;55.798;37.782;2023-08-06T02:20:42;13.18;;;10.55;;
33421;SDS011;19763;55.798;37.782;2023-08-06T02:23:08;19.25;;;11.70;;
33421;SDS011;19763;55.798;37.782;2023-08-06T02:25:34;14.82;;;10.85;;
33421;SDS011;19763;55.798;37.782;2023-08-06T02:28:00;14.13;;;11.10;;
33421;SDS011;19763;55.798;37.782;2023-08-06T02:30:26;14.50;;;11.45;;
33421;SDS011;19763;55.798;37.782;2023-08-06T02:32:52;18.92;;;11.57;;
33421;SDS011;19763;55.798;37.782;2023-08-06T02:35:17;18.67;;;11.32;;
33421;SDS011;19763;55.798;37.782;2023-08-06T02:37:43;13.35;;;10.98;;
33421;SDS011;19763;55.798;37.782;2023-08-06T02:40:09;17.42;;;10.68;;
33421;SDS011;19763;55.798;37.782;2023-08-06T02:42:35;17.98;;;12.27;;
33421;SDS011;19763;55.798;37.782;2023-08-06T02:45:00;17.58;;;11.80;;
33421;SDS011;19763;55.798;37.782;2023-08-06T02:47:26;17.92;;;11.25;;
33421;SDS011;19763;55.798;37.782;2023-08-06T02:49:51;14.57;;;11.27;;
33421;SDS011;19763;55.798;37.782;2023-08-06T02:52:17;16.10;;;11.27;;
33421;SDS011;19763;55.798;37.782;2023-08-06T02:54:43;14.80;;;11.15;;
33421;SDS011;19763;55.798;37.782;2023-08-06T02:57:09;18.95;;;10.85;;
33421;SDS011;19763;55.798;37.782;2023-08-06T02:59:34;15.55;;;12.32;;
33421;SDS011;19763;55.798;37.782;2023-08-06T03:02:00;16.90;;;12.85;;
33421;SDS011;19763;55.798;37.782;2023-08-06T03:04:26;13.35;;;11.48;;
33421;SDS011;19763;55.798;37.782;2023-08-06T03:06:51;20.17;;;12.18;;
33421;SDS011;19763;55.798;37.782;2023-08-06T03:09:17;13.15;;;11.02;;
33421;SDS011;19763;55.798;37.782;2023-08-06T03:11:43;14.45;;;11.55;;
33421;SDS011;19763;55.798;37.782;2023-08-06T03:14:09;16.73;;;11.30;;
33421;SDS011;19763;55.798;37.782;2023-08-06T03:16:34;19.70;;;12.70;;
33421;SDS011;19763;55.798;37.782;2023-08-06T03:19:00;19.23;;;12.50;;
33421;SDS011;19763;55.798;37.782;2023-08-06T03:21:26;17.65;;;11.13;;
33421;SDS011;19763;55.798;37.782;2023-08-06T03:23:52;19.10;;;11.80;;
33421;SDS011;19763;55.798;37.782;2023-08-06T03:26:17;17.25;;;11.63;;
33421;SDS011;19763;55.798;37.782;2023-08-06T03:28:43;20.52;;;12.52;;
33421;SDS011;19763;55.798;37.782;2023-08-06T03:31:09;18.55;;;12.52;;
33421;SDS011;19763;55.798;37.782;2023-08-06T03:33:35;16.35;;;12.55;;
33421;SDS011;19763;55.798;37.782;2023-08-06T03:36:00;14.50;;;10.98;;
33421;SDS011;19763;55.798;37.782;2023-08-06T03:38:26;21.42;;;13.52;;
33421;SDS011;19763;55.798;37.782;2023-08-06T03:40:53;15.90;;;12.20;;
33421;SDS011;19763;55.798;37.782;2023-08-06T03:43:18;18.85;;;13.77;;
33421;SDS011;19763;55.798;37.782;2023-08-06T03:45:44;16.08;;;12.43;;
33421;SDS011;19763;55.798;37.782;2023-08-06T03:48:10;17.88;;;11.68;;
33421;SDS011;19763;55.798;37.782;2023-08-06T03:50:35;15.27;;;11.50;;
33421;SDS011;19763;55.798;37.782;2023-08-06T03:53:01;18.95;;;11.88;;
33421;SDS011;19763;55.798;37.782;2023-08-06T03:55:27;16.55;;;12.77;;
33421;SDS011;19763;55.798;37.782;2023-08-06T03:57:52;16.55;;;12.18;;
33421;SDS011;19763;55.798;37.782;2023-08-06T04:00:18;19.45;;;12.32;;
33421;SDS011;19763;55.798;37.782;2023-08-06T04:02:44;17.95;;;12.20;;
33421;SDS011;19763;55.798;37.782;2023-08-06T04:05:10;17.20;;;11.05;;
33421;SDS011;19763;55.798;37.782;2023-08-06T04:07:35;20.25;;;11.75;;
33421;SDS011;19763;55.798;37.782;2023-08-06T04:10:02;15.90;;;11.70;;
33421;SDS011;19763;55.798;37.782;2023-08-06T04:12:31;13.63;;;11.43;;
33421;SDS011;19763;55.798;37.782;2023-08-06T04:14:58;17.17;;;10.70;;
33421;SDS011;19763;55.798;37.782;2023-08-06T04:17:24;14.23;;;10.77;;
33421;SDS011;19763;55.798;37.782;2023-08-06T04:19:51;16.13;;;10.40;;
33421;SDS011;19763;55.798;37.782;2023-08-06T04:22:18;15.90;;;10.13;;
33421;SDS011;19763;55.798;37.782;2023-08-06T04:24:44;18.45;;;11.23;;
33421;SDS011;19763;55.798;37.782;2023-08-06T04:27:10;15.90;;;10.00;;
33421;SDS011;19763;55.798;37.782;2023-08-06T04:29:36;13.27;;;9.38;;
33421;SDS011;19763;55.798;37.782;2023-08-06T04:32:06;12.35;;;10.43;;
33421;SDS011;19763;55.798;37.782;2023-08-06T04:34:34;15.23;;;9.77;;
33421;SDS011;19763;55.798;37.782;2023-08-06T04:37:00;18.98;;;9.82;;
33421;SDS011;19763;55.798;37.782;2023-08-06T04:39:26;13.93;;;8.80;;
33421;SDS011;19763;55.798;37.782;2023-08-06T04:41:52;16.98;;;10.48;;
33421;SDS011;19763;55.798;37.782;2023-08-06T04:44:18;13.05;;;9.15;;
33421;SDS011;19763;55.798;37.782;2023-08-06T04:46:43;13.68;;;10.05;;
33421;SDS011;19763;55.798;37.782;2023-08-06T04:49:09;15.00;;;9.43;;
33421;SDS011;19763;55.798;37.782;2023-08-06T04:51:35;13.07;;;8.57;;
33421;SDS011;19763;55.798;37.782;2023-08-06T04:54:00;18.85;;;9.35;;
33421;SDS011;19763;55.798;37.782;2023-08-06T04:56:26;11.30;;;8.75;;
33421;SDS011;19763;55.798;37.782;2023-08-06T04:58:52;13.18;;;9.40;;
33421;SDS011;19763;55.798;37.782;2023-08-06T05:01:18;16.88;;;9.55;;
33421;SDS011;19763;55.798;37.782;2023-08-06T05:03:43;13.10;;;10.20;;
33421;SDS011;19763;55.798;37.782;2023-08-06T05:06:09;20.00;;;9.18;;
33421;SDS011;19763;55.798;37.782;2023-08-06T05:08:35;18.83;;;10.23;;
33421;SDS011;19763;55.798;37.782;2023-08-06T05:11:01;16.33;;;9.65;;
33421;SDS011;19763;55.798;37.782;2023-08-06T05:13:27;11.40;;;8.40;;
33421;SDS011;19763;55.798;37.782;2023-08-06T05:15:53;16.13;;;9.35;;
33421;SDS011;19763;55.798;37.782;2023-08-06T05:18:19;21.40;;;8.85;;
33421;SDS011;19763;55.798;37.782;2023-08-06T05:20:45;14.85;;;9.68;;
33421;SDS011;19763;55.798;37.782;2023-08-06T05:23:11;11.82;;;8.63;;
33421;SDS011;19763;55.798;37.782;2023-08-06T05:25:37;14.13;;;9.38;;
33421;SDS011;19763;55.798;37.782;2023-08-06T05:28:03;17.25;;;8.45;;
33421;SDS011;19763;55.798;37.782;2023-08-06T05:30:29;17.10;;;9.93;;
33421;SDS011;19763;55.798;37.782;2023-08-06T05:32:55;13.80;;;8.48;;
33421;SDS011;19763;55.798;37.782;2023-08-06T05:35:21;14.55;;;8.85;;
33421;SDS011;19763;55.798;37.782;2023-08-06T05:37:47;14.57;;;9.20;;
33421;SDS011;19763;55.798;37.782;2023-08-06T05:40:13;14.52;;;9.48;;
33421;SDS011;19763;55.798;37.782;2023-08-06T05:42:40;15.02;;;9.10;;
33421;SDS011;19763;55.798;37.782;2023-08-06T05:45:06;16.42;;;10.00;;
33421;SDS011;19763;55.798;37.782;2023-08-06T05:47:32;21.58;;;9.32;;
33421;SDS011;19763;55.798;37.782;2023-08-06T05:49:58;10.88;;;8.90;;
33421;SDS011;19763;55.798;37.782;2023-08-06T05:52:23;17.25;;;9.40;;
33421;SDS011;19763;55.798;37.782;2023-08-06T05:54:49;13.73;;;8.82;;
33421;SDS011;19763;55.798;37.782;2023-08-06T05:57:15;17.52;;;8.20;;
33421;SDS011;19763;55.798;37.782;2023-08-06T05:59:41;13.30;;;8.32;;
33421;SDS011;19763;55.798;37.782;2023-08-06T06:02:07;12.95;;;7.60;;
33421;SDS011;19763;55.798;37.782;2023-08-06T06:04:33;12.73;;;7.53;;
33421;SDS011;19763;55.798;37.782;2023-08-06T06:06:59;12.70;;;7.97;;
33421;SDS011;19763;55.798;37.782;2023-08-06T06:09:25;13.80;;;8.35;;
33421;SDS011;19763;55.798;37.782;2023-08-06T06:11:51;10.73;;;7.80;;
33421;SDS011;19763;55.798;37.782;2023-08-06T06:14:17;12.48;;;7.55;;
33421;SDS011;19763;55.798;37.782;2023-08-06T06:16:43;9.68;;;7.20;;
33421;SDS011;19763;55.798;37.782;2023-08-06T06:19:09;9.75;;;6.78;;
33421;SDS011;19763;55.798;37.782;2023-08-06T06:21:34;13.18;;;7.95;;
33421;SDS011;19763;55.798;37.782;2023-08-06T06:24:00;14.45;;;8.18;;
33421;SDS011;19763;55.798;37.782;2023-08-06T06:26:25;10.00;;;7.50;;
33421;SDS011;19763;55.798;37.782;2023-08-06T06:28:51;11.00;;;7.78;;
33421;SDS011;19763;55.798;37.782;2023-08-06T06:31:17;12.02;;;8.32;;
33421;SDS011;19763;55.798;37.782;2023-08-06T06:33:42;11.48;;;7.25;;
33421;SDS011;19763;55.798;37.782;2023-08-06T06:36:08;11.13;;;7.15;;
33421;SDS011;19763;55.798;37.782;2023-08-06T06:38:35;11.82;;;7.22;;
33421;SDS011;19763;55.798;37.782;2023-08-06T06:41:00;13.98;;;7.63;;
33421;SDS011;19763;55.798;37.782;2023-08-06T06:43:28;11.95;;;7.72;;
33421;SDS011;19763;55.798;37.782;2023-08-06T06:45:57;12.75;;;7.32;;
33421;SDS011;19763;55.798;37.782;2023-08-06T06:48:26;9.05;;;6.72;;
33421;SDS011;19763;55.798;37.782;2023-08-06T06:50:52;12.07;;;6.80;;
33421;SDS011;19763;55.798;37.782;2023-08-06T06:53:18;10.40;;;7.38;;
33421;SDS011;19763;55.798;37.782;2023-08-06T06:55:44;7.88;;;6.22;;
33421;SDS011;19763;55.798;37.782;2023-08-06T06:58:09;7.53;;;6.13;;
33421;SDS011;19763;55.798;37.782;2023-08-06T07:00:35;10.20;;;6.25;;
33421;SDS011;19763;55.798;37.782;2023-08-06T07:03:02;10.15;;;6.25;;
33421;SDS011;19763;55.798;37.782;2023-08-06T07:05:28;9.85;;;6.78;;
33421;SDS011;19763;55.798;37.782;2023-08-06T07:07:54;11.38;;;6.10;;
33421;SDS011;19763;55.798;37.782;2023-08-06T07:10:19;14.10;;;6.18;;
33421;SDS011;19763;55.798;37.782;2023-08-06T07:12:45;10.15;;;6.40;;
33421;SDS011;19763;55.798;37.782;2023-08-06T07:15:11;13.30;;;6.20;;
33421;SDS011;19763;55.798;37.782;2023-08-06T07:17:36;10.75;;;6.25;;
33421;SDS011;19763;55.798;37.782;2023-08-06T07:20:02;12.18;;;6.38;;
33421;SDS011;19763;55.798;37.782;2023-08-06T07:22:29;6.75;;;6.05;;
33421;SDS011;19763;55.798;37.782;2023-08-06T07:24:55;11.93;;;6.47;;
33421;SDS011;19763;55.798;37.782;2023-08-06T07:27:21;8.90;;;5.78;;
33421;SDS011;19763;55.798;37.782;2023-08-06T07:29:46;9.68;;;6.05;;
33421;SDS011;19763;55.798;37.782;2023-08-06T07:32:13;8.13;;;5.60;;
33421;SDS011;19763;55.798;37.782;2023-08-06T07:34:39;7.13;;;5.60;;
33421;SDS011;19763;55.798;37.782;2023-08-06T07:37:05;7.22;;;6.50;;
33421;SDS011;19763;55.798;37.782;2023-08-06T07:39:31;8.73;;;5.55;;
33421;SDS011;19763;55.798;37.782;2023-08-06T07:41:56;8.75;;;5.93;;
33421;SDS011;19763;55.798;37.782;2023-08-06T07:44:22;7.65;;;5.50;;
33421;SDS011;19763;55.798;37.782;2023-08-06T07:46:49;10.10;;;5.65;;
33421;SDS011;19763;55.798;37.782;2023-08-06T07:49:15;9.88;;;6.13;;
33421;SDS011;19763;55.798;37.782;2023-08-06T07:51:40;12.88;;;6.10;;
33421;SDS011;19763;55.798;37.782;2023-08-06T07:54:06;10.13;;;6.30;;
33421;SDS011;19763;55.798;37.782;2023-08-06T07:56:32;11.15;;;6.13;;
33421;SDS011;19763;55.798;37.782;2023-08-06T07:58:58;9.57;;;5.32;;
33421;SDS011;19763;55.798;37.782;2023-08-06T08:01:24;10.73;;;6.32;;
33421;SDS011;19763;55.798;37.782;2023-08-06T08:03:49;9.20;;;5.82;;
33421;SDS011;19763;55.798;37.782;2023-08-06T08:06:15;8.35;;;5.78;;
33421;SDS011;19763;55.798;37.782;2023-08-06T08:08:41;10.70;;;6.07;;
33421;SDS011;19763;55.798;37.782;2023-08-06T08:11:06;9.43;;;6.88;;
33421;SDS011;19763;55.798;37.782;2023-08-06T08:13:32;7.50;;;6.60;;
33421;SDS011;19763;55.798;37.782;2023-08-06T08:15:59;7.65;;;5.85;;
33421;SDS011;19763;55.798;37.782;2023-08-06T08:18:26;7.05;;;6.18;;
33421;SDS011;19763;55.798;37.782;2023-08-06T08:20:52;12.18;;;6.25;;
33421;SDS011;19763;55.798;37.782;2023-08-06T08:23:18;6.43;;;5.32;;
33421;SDS011;19763;55.798;37.782;2023-08-06T08:25:43;6.32;;;5.40;;
33421;SDS011;19763;55.798;37.782;2023-08-06T08:28:09;8.20;;;5.05;;
33421;SDS011;19763;55.798;37.782;2023-08-06T08:30:35;9.00;;;5.32;;
33421;SDS011;19763;55.798;37.782;2023-08-06T08:33:00;5.85;;;4.97;;
33421;SDS011;19763;55.798;37.782;2023-08-06T08:35:26;7.18;;;4.85;;
33421;SDS011;19763;55.798;37.782;2023-08-06T08:37:52;7.60;;;5.20;;
33421;SDS011;19763;55.798;37.782;2023-08-06T08:40:17;11.15;;;5.68;;
33421;SDS011;19763;55.798;37.782;2023-08-06T08:42:45;8.68;;;5.47;;
33421;SDS011;19763;55.798;37.782;2023-08-06T08:45:11;5.57;;;4.55;;
33421;SDS011;19763;55.798;37.782;2023-08-06T08:47:41;6.28;;;5.00;;
33421;SDS011;19763;55.798;37.782;2023-08-06T08:50:11;6.97;;;4.80;;
33421;SDS011;19763;55.798;37.782;2023-08-06T08:52:38;10.65;;;5.10;;
33421;SDS011;19763;55.798;37.782;2023-08-06T08:55:06;5.45;;;4.82;;
33421;SDS011;19763;55.798;37.782;2023-08-06T08:57:33;6.80;;;5.15;;
33421;SDS011;19763;55.798;37.782;2023-08-06T08:59:59;5.82;;;5.20;;
33421;SDS011;19763;55.798;37.782;2023-08-06T09:02:25;6.57;;;5.30;;
33421;SDS011;19763;55.798;37.782;2023-08-06T09:04:58;7.15;;;5.00;;
33421;SDS011;19763;55.798;37.782;2023-08-06T09:07:32;8.60;;;5.22;;
33421;SDS011;19763;55.798;37.782;2023-08-06T09:10:01;9.38;;;6.40;;
33421;SDS011;19763;55.798;37.782;2023-08-06T09:12:31;7.28;;;5.63;;
33421;SDS011;19763;55.798;37.782;2023-08-06T09:14:57;8.98;;;7.10;;
33421;SDS011;19763;55.798;37.782;2023-08-06T09:17:23;7.03;;;5.35;;
33421;SDS011;19763;55.798;37.782;2023-08-06T09:19:49;7.32;;;4.75;;
33421;SDS011;19763;55.798;37.782;2023-08-06T09:22:15;8.20;;;5.80;;
33421;SDS011;19763;55.798;37.782;2023-08-06T09:24:41;7.13;;;5.80;;
33421;SDS011;19763;55.798;37.782;2023-08-06T09:27:11;7.65;;;5.57;;
33421;SDS011;19763;55.798;37.782;2023-08-06T09:29:40;6.78;;;5.78;;
33421;SDS011;19763;55.798;37.782;2023-08-06T09:32:13;8.38;;;6.30;;
33421;SDS011;19763;55.798;37.782;2023-08-06T09:34:39;7.72;;;6.15;;
33421;SDS011;19763;55.798;37.782;2023-08-06T09:37:08;8.18;;;6.15;;
33421;SDS011;19763;55.798;37.782;2023-08-06T09:39:35;10.82;;;6.10;;
33421;SDS011;19763;55.798;37.782;2023-08-06T09:42:01;6.45;;;5.30;;
33421;SDS011;19763;55.798;37.782;2023-08-06T09:44:27;8.15;;;6.35;;
33421;SDS011;19763;55.798;37.782;2023-08-06T09:46:56;9.77;;;6.22;;
33421;SDS011;19763;55.798;37.782;2023-08-06T09:49:26;10.55;;;6.45;;
33421;SDS011;19763;55.798;37.782;2023-08-06T09:51:53;8.90;;;6.07;;
33421;SDS011;19763;55.798;37.782;2023-08-06T09:54:25;9.32;;;6.38;;
33421;SDS011;19763;55.798;37.782;2023-08-06T09:56:53;9.18;;;6.28;;
33421;SDS011;19763;55.798;37.782;2023-08-06T09:59:19;8.63;;;6.82;;
33421;SDS011;19763;55.798;37.782;2023-08-06T10:01:45;9.50;;;6.20;;
33421;SDS011;19763;55.798;37.782;2023-08-06T10:04:12;8.68;;;6.63;;
33421;SDS011;19763;55.798;37.782;2023-08-06T10:06:42;13.80;;;6.63;;
33421;SDS011;19763;55.798;37.782;2023-08-06T10:09:11;14.43;;;9.63;;
33421;SDS011;19763;55.798;37.782;2023-08-06T10:11:37;8.20;;;6.65;;
33421;SDS011;19763;55.798;37.782;2023-08-06T10:14:11;8.00;;;7.20;;
33421;SDS011;19763;55.798;37.782;2023-08-06T10:16:41;9.05;;;6.47;;
33421;SDS011;19763;55.798;37.782;2023-08-06T10:19:08;7.88;;;6.88;;
33421;SDS011;19763;55.798;37.782;2023-08-06T10:21:35;10.70;;;7.00;;
33421;SDS011;19763;55.798;37.782;2023-08-06T10:24:03;10.55;;;6.78;;
33421;SDS011;19763;55.798;37.782;2023-08-06T10:26:34;9.55;;;7.05;;
33421;SDS011;19763;55.798;37.782;2023-08-06T10:29:00;10.48;;;7.30;;
33421;SDS011;19763;55.798;37.782;2023-08-06T10:34:23;10.05;;;6.38;;
33421;SDS011;19763;55.798;37.782;2023-08-06T10:36:48;10.68;;;7.10;;
33421;SDS011;19763;55.798;37.782;2023-08-06T10:39:14;10.90;;;6.68;;
33421;SDS011;19763;55.798;37.782;2023-08-06T10:41:43;13.05;;;6.80;;
33421;SDS011;19763;55.798;37.782;2023-08-06T10:44:10;11.15;;;9.93;;
33421;SDS011;19763;55.798;37.782;2023-08-06T10:46:36;12.57;;;7.03;;
33421;SDS011;19763;55.798;37.782;2023-08-06T10:49:05;11.32;;;6.75;;
33421;SDS011;19763;55.798;37.782;2023-08-06T10:51:32;9.32;;;6.20;;
33421;SDS011;19763;55.798;37.782;2023-08-06T10:53:58;10.43;;;6.28;;
33421;SDS011;19763;55.798;37.782;2023-08-06T10:56:24;9.13;;;6.50;;
33421;SDS011;19763;55.798;37.782;2023-08-06T10:58:54;12.57;;;6.35;;
33421;SDS011;19763;55.798;37.782;2023-08-06T11:01:23;9.73;;;6.32;;
33421;SDS011;19763;55.798;37.782;2023-08-06T11:03:50;11.63;;;7.50;;
33421;SDS011;19763;55.798;37.782;2023-08-06T11:06:21;10.50;;;6.38;;
33421;SDS011;19763;55.798;37.782;2023-08-06T11:08:49;10.55;;;6.63;;
33421;SDS011;19763;55.798;37.782;2023-08-06T11:11:15;8.43;;;6.55;;
33421;SDS011;19763;55.798;37.782;2023-08-06T11:13:43;10.25;;;6.28;;
33421;SDS011;19763;55.798;37.782;2023-08-06T11:16:13;9.50;;;6.30;;
33421;SDS011;19763;55.798;37.782;2023-08-06T11:18:43;9.95;;;6.03;;
33421;SDS011;19763;55.798;37.782;2023-08-06T11:21:09;8.82;;;5.85;;
33421;SDS011;19763;55.798;37.782;2023-08-06T11:23:37;7.88;;;6.15;;
33421;SDS011;19763;55.798;37.782;2023-08-06T11:26:02;8.88;;;6.63;;
33421;SDS011;19763;55.798;37.782;2023-08-06T11:28:28;10.00;;;6.82;;
33421;SDS011;19763;55.798;37.782;2023-08-06T11:30:54;8.70;;;6.65;;
33421;SDS011;19763;55.798;37.782;2023-08-06T11:33:22;7.47;;;6.07;;
33421;SDS011;19763;55.798;37.782;2023-08-06T11:35:52;7.90;;;6.40;;
33421;SDS011;19763;55.798;37.782;2023-08-06T11:38:18;7.63;;;6.47;;
33421;SDS011;19763;55.798;37.782;2023-08-06T11:40:44;9.93;;;6.82;;
33421;SDS011;19763;55.798;37.782;2023-08-06T11:43:11;8.75;;;7.13;;
33421;SDS011;19763;55.798;37.782;2023-08-06T11:45:37;9.75;;;6.40;;
33421;SDS011;19763;55.798;37.782;2023-08-06T11:48:03;9.95;;;7.13;;
33421;SDS011;19763;55.798;37.782;2023-08-06T11:50:30;10.82;;;6.80;;
33421;SDS011;19763;55.798;37.782;2023-08-06T11:52:56;7.55;;;6.00;;
33421;SDS011;19763;55.798;37.782;2023-08-06T11:55:25;7.70;;;6.38;;
33421;SDS011;19763;55.798;37.782;2023-08-06T11:57:53;7.22;;;6.43;;
33421;SDS011;19763;55.798;37.782;2023-08-06T12:00:20;8.95;;;6.10;;
33421;SDS011;19763;55.798;37.782;2023-08-06T12:02:49;9.50;;;6.30;;
33421;SDS011;19763;55.798;37.782;2023-08-06T12:05:21;10.25;;;7.63;;
33421;SDS011;19763;55.798;37.782;2023-08-06T12:07:58;9.80;;;6.55;;
33421;SDS011;19763;55.798;37.782;2023-08-06T12:10:26;9.43;;;6.82;;
33421;SDS011;19763;55.798;37.782;2023-08-06T12:12:53;9.82;;;6.72;;
33421;SDS011;19763;55.798;37.782;2023-08-06T12:15:19;11.20;;;6.63;;
33421;SDS011;19763;55.798;37.782;2023-08-06T12:17:45;10.90;;;6.30;;
33421;SDS011;19763;55.798;37.782;2023-08-06T12:20:10;10.25;;;6.60;;
33421;SDS011;19763;55.798;37.782;2023-08-06T12:22:37;9.15;;;6.25;;
33421;SDS011;19763;55.798;37.782;2023-08-06T12:25:09;8.82;;;6.13;;
33421;SDS011;19763;55.798;37.782;2023-08-06T12:27:41;7.13;;;5.72;;
33421;SDS011;19763;55.798;37.782;2023-08-06T12:30:07;6.50;;;5.40;;
33421;SDS011;19763;55.798;37.782;2023-08-06T12:32:35;7.70;;;5.85;;
33421;SDS011;19763;55.798;37.782;2023-08-06T12:35:02;7.32;;;5.78;;
33421;SDS011;19763;55.798;37.782;2023-08-06T12:37:31;7.03;;;5.72;;
33421;SDS011;19763;55.798;37.782;2023-08-06T12:39:57;6.95;;;5.93;;
33421;SDS011;19763;55.798;37.782;2023-08-06T12:42:23;9.30;;;5.65;;
33421;SDS011;19763;55.798;37.782;2023-08-06T12:44:49;9.60;;;6.15;;
33421;SDS011;19763;55.798;37.782;2023-08-06T12:47:16;8.40;;;5.88;;
33421;SDS011;19763;55.798;37.782;2023-08-06T12:49:42;6.18;;;5.68;;
33421;SDS011;19763;55.798;37.782;2023-08-06T12:52:07;6.05;;;5.45;;
33421;SDS011;19763;55.798;37.782;2023-08-06T12:54:35;7.25;;;6.18;;
33421;SDS011;19763;55.798;37.782;2023-08-06T12:57:04;8.27;;;6.45;;
33421;SDS011;19763;55.798;37.782;2023-08-06T12:59:30;6.30;;;5.70;;
33421;SDS011;19763;55.798;37.782;2023-08-06T13:01:56;7.32;;;5.93;;
33421;SDS011;19763;55.798;37.782;2023-08-06T13:04:21;7.85;;;6.40;;
33421;SDS011;19763;55.798;37.782;2023-08-06T13:06:47;7.38;;;6.13;;
33421;SDS011;19763;55.798;37.782;2023-08-06T13:09:13;8.48;;;6.20;;
33421;SDS011;19763;55.798;37.782;2023-08-06T13:11:39;7.25;;;6.00;;
33421;SDS011;19763;55.798;37.782;2023-08-06T13:14:08;9.30;;;6.22;;
33421;SDS011;19763;55.798;37.782;2023-08-06T13:16:36;8.88;;;6.90;;
33421;SDS011;19763;55.798;37.782;2023-08-06T13:19:03;8.63;;;6.47;;
33421;SDS011;19763;55.798;37.782;2023-08-06T13:24:17;8.77;;;6.80;;
33421;SDS011;19763;55.798;37.782;2023-08-06T13:26:43;7.18;;;5.70;;
33421;SDS011;19763;55.798;37.782;2023-08-06T13:29:09;7.72;;;6.13;;
33421;SDS011;19763;55.798;37.782;2023-08-06T13:31:36;12.20;;;6.10;;
33421;SDS011;19763;55.798;37.782;2023-08-06T13:34:02;8.77;;;5.85;;
33421;SDS011;19763;55.798;37.782;2023-08-06T13:36:28;9.18;;;5.75;;
33421;SDS011;19763;55.798;37.782;2023-08-06T13:38:54;6.93;;;5.85;;
33421;SDS011;19763;55.798;37.782;2023-08-06T13:41:20;8.80;;;6.00;;
33421;SDS011;19763;55.798;37.782;2023-08-06T13:43:46;11.73;;;6.55;;
33421;SDS011;19763;55.798;37.782;2023-08-06T13:46:12;7.70;;;5.50;;
33421;SDS011;19763;55.798;37.782;2023-08-06T13:48:43;12.50;;;6.25;;
33421;SDS011;19763;55.798;37.782;2023-08-06T13:51:10;9.10;;;6.35;;
33421;SDS011;19763;55.798;37.782;2023-08-06T13:53:37;6.95;;;5.70;;
33421;SDS011;19763;55.798;37.782;2023-08-06T13:56:06;6.63;;;6.03;;
33421;SDS011;19763;55.798;37.782;2023-08-06T13:58:32;8.98;;;6.18;;
33421;SDS011;19763;55.798;37.782;2023-08-06T14:00:59;11.88;;;7.05;;
33421;SDS011;19763;55.798;37.782;2023-08-06T14:03:24;10.95;;;6.32;;
33421;SDS011;19763;55.798;37.782;2023-08-06T14:05:50;8.88;;;6.47;;
33421;SDS011;19763;55.798;37.782;2023-08-06T14:08:16;11.35;;;6.78;;
33421;SDS011;19763;55.798;37.782;2023-08-06T14:10:45;8.98;;;6.38;;
33421;SDS011;19763;55.798;37.782;2023-08-06T14:13:11;9.23;;;7.07;;
33421;SDS011;19763;55.798;37.782;2023-08-06T14:15:37;10.10;;;6.43;;
33421;SDS011;19763;55.798;37.782;2023-08-06T14:18:06;11.13;;;6.70;;
33421;SDS011;19763;55.798;37.782;2023-08-06T14:20:33;11.80;;;7.07;;
33421;SDS011;19763;55.798;37.782;2023-08-06T14:22:59;9.65;;;7.15;;
33421;SDS011;19763;55.798;37.782;2023-08-06T14:25:25;10.15;;;6.72;;
33421;SDS011;19763;55.798;37.782;2023-08-06T14:27:51;7.35;;;6.55;;
33421;SDS011;19763;55.798;37.782;2023-08-06T14:30:16;7.75;;;6.43;;